Wenonah, Alabama
Current Conditions -  °F | °C
As of 5:53 PM on Thursday 18 Dec 2014 (Local Time) from KBHM Reporting Station
Scattered Clouds Scattered Clouds  
Wind Chill: 40°   Ceiling: Unl
Heat Index: 40°   Visibility: 10mi
Dew Point: 34°   Wind: 3mph
Humidity: 79%   Direction: 340°NNW
Pressure: 30.18"   Gusts: NA
Location:  33.4593°N, 86.8623°W
Report Text: KBHM 182353Z 34003KT 10SM SCT040 04/01 A3018 RMK AO2 SLP222 60000 T00440011 10094 20039 51003
Loading
Personal Weather Stations






























Interactive Weather Map New forecast layout! Learn more

10-Day Weather Forecast

Advertisements
Track Severe Weather on mobile